Time;durP1;ratioP1;P1;durP2;ratioP2;P2;SDS_P1;SDS_P2;PMS_P1;PMS_P2;Temp;Humidity;BMP_temperature;BMP_pressure;BME280_temperature;BME280_humidity;BME280_pressure;Samples;Min_cycle;Max_cycle;Signal;HPM_P1;HPM_P2
2022/06/27 00:00:09;;;;;;;7.10;2.50;;;;;;;21.05;55.71;100249.05;106748;1269;22682;-78
2022/06/27 00:03:01;;;;;;;8.40;2.20;;;;;;;20.98;55.80;100250.73;106802;1268;23661;-79
2022/06/27 00:05:32;;;;;;;6.30;2.00;;;;;;;20.92;55.87;100252.27;106715;1271;24139;-78
2022/06/27 00:08:04;;;;;;;9.00;2.40;;;;;;;20.86;56.05;100247.96;106848;1268;22607;-77
2022/06/27 00:10:36;;;;;;;8.90;1.90;;;;;;;20.79;56.17;100249.31;106936;1268;22524;-78
2022/06/27 00:13:07;;;;;;;9.00;2.60;;;;;;;20.73;56.19;100246.82;106882;1267;22572;-78
2022/06/27 00:15:39;;;;;;;6.90;2.40;;;;;;;20.70;56.24;100251.73;106790;1268;22621;-78
2022/06/27 00:18:11;;;;;;;8.00;2.30;;;;;;;20.66;56.34;100247.70;106848;1268;25212;-79
2022/06/27 00:20:42;;;;;;;7.40;2.10;;;;;;;20.63;56.54;100243.91;106897;1268;22550;-77
2022/06/27 00:23:14;;;;;;;6.30;2.10;;;;;;;20.58;56.53;100242.86;106930;1268;22609;-78
2022/06/27 00:25:45;;;;;;;6.50;2.20;;;;;;;20.55;56.74;100243.61;106863;1268;23778;-78
2022/06/27 00:28:17;;;;;;;8.50;2.00;;;;;;;20.51;56.85;100245.95;106870;1268;25459;-79
2022/06/27 00:30:49;;;;;;;11.40;2.70;;;;;;;20.48;56.80;100246.63;106852;1268;22534;-78
2022/06/27 00:33:20;;;;;;;6.60;2.60;;;;;;;20.45;56.96;100248.98;106888;1266;24239;-77
2022/06/27 00:35:53;;;;;;;7.20;2.50;;;;;;;20.42;57.12;100249.20;106801;1267;22521;-78
2022/06/27 00:38:25;;;;;;;11.10;2.30;;;;;;;20.38;57.17;100253.11;106894;1268;25546;-77
2022/06/27 00:40:56;;;;;;;9.40;2.90;;;;;;;20.34;57.34;100254.77;106753;1269;24378;-78
2022/06/27 00:43:28;;;;;;;6.20;2.20;;;;;;;20.30;57.55;100255.02;106817;1268;22522;-77
2022/06/27 00:46:00;;;;;;;9.50;2.30;;;;;;;20.25;57.63;100257.39;106924;1268;23126;-78
2022/06/27 00:48:31;;;;;;;8.80;2.90;;;;;;;20.20;57.72;100258.30;106849;1268;22547;-79
2022/06/27 00:51:03;;;;;;;13.20;2.60;;;;;;;20.15;57.79;100258.02;106899;1268;22608;-78
2022/06/27 00:53:36;;;;;;;9.70;3.00;;;;;;;20.09;57.96;100255.25;106732;1268;24222;-78
2022/06/27 00:56:09;;;;;;;7.60;2.50;;;;;;;20.05;58.04;100253.98;106721;1268;22671;-78
2022/06/27 00:58:40;;;;;;;7.60;2.30;;;;;;;20.00;58.22;100248.77;106702;1268;22746;-77
2022/06/27 01:01:12;;;;;;;9.70;3.30;;;;;;;19.94;58.37;100246.01;106872;1268;26513;-78
2022/06/27 01:03:44;;;;;;;9.70;2.50;;;;;;;19.90;58.49;100249.01;106851;1267;22522;-77
2022/06/27 01:06:16;;;;;;;11.10;3.00;;;;;;;19.87;58.44;100248.20;106778;1268;22587;-78
2022/06/27 01:08:48;;;;;;;10.20;2.40;;;;;;;19.84;58.59;100250.30;106723;1268;22656;-78
2022/06/27 01:11:20;;;;;;;8.30;2.40;;;;;;;19.82;58.85;100254.98;106865;1268;22596;-77
2022/06/27 01:13:53;;;;;;;8.00;2.40;;;;;;;19.79;58.88;100253.96;106854;1268;22519;-78
2022/06/27 01:16:24;;;;;;;9.80;2.50;;;;;;;19.75;58.86;100252.71;106781;1268;22561;-78
2022/06/27 01:18:56;;;;;;;8.10;2.30;;;;;;;19.73;58.68;100250.16;106766;1268;24204;-77
2022/06/27 01:21:32;;;;;;;9.40;2.60;;;;;;;19.71;58.99;100254.67;106845;1268;22556;-78
2022/06/27 01:24:04;;;;;;;7.80;2.60;;;;;;;19.68;59.10;100256.01;106880;1267;25810;-78
2022/06/27 01:26:35;;;;;;;8.30;2.70;;;;;;;19.65;59.22;100252.15;106702;1268;23068;-78
2022/06/27 01:29:07;;;;;;;9.80;2.60;;;;;;;19.61;59.31;100251.85;106705;1269;23178;-79
2022/06/27 01:31:40;;;;;;;9.70;2.90;;;;;;;19.59;59.26;100249.59;106841;1268;22649;-79
2022/06/27 01:34:13;;;;;;;9.60;2.40;;;;;;;19.55;59.34;100247.95;106841;1268;22889;-78
2022/06/27 01:36:45;;;;;;;10.00;2.90;;;;;;;19.53;59.52;100242.59;106809;1268;24185;-78
2022/06/27 01:39:19;;;;;;;6.10;2.20;;;;;;;19.51;59.45;100237.11;106855;1268;23075;-78
2022/06/27 01:41:53;;;;;;;8.20;2.20;;;;;;;19.48;59.49;100240.09;107003;1268;23063;-77
2022/06/27 01:44:27;;;;;;;7.50;2.60;;;;;;;19.46;59.52;100242.81;106942;1268;25256;-78
2022/06/27 01:47:03;;;;;;;10.30;2.50;;;;;;;19.43;59.68;100239.81;106850;1267;22789;-77
2022/06/27 01:49:36;;;;;;;9.00;3.00;;;;;;;19.39;59.94;100239.38;106824;1268;22512;-78
2022/06/27 01:52:09;;;;;;;7.40;2.20;;;;;;;19.34;59.76;100244.61;106877;1267;24232;-78
2022/06/27 01:54:44;;;;;;;9.70;3.20;;;;;;;19.30;59.95;100243.49;106923;1266;24249;-77
2022/06/27 01:57:17;;;;;;;13.20;2.40;;;;;;;19.27;60.08;100243.10;106642;1268;22541;-77
2022/06/27 01:59:50;;;;;;;9.00;2.80;;;;;;;19.23;60.14;100241.66;106875;1268;25239;-79
2022/06/27 02:02:22;;;;;;;9.00;2.50;;;;;;;19.20;60.20;100239.40;106681;1268;22539;-79
2022/06/27 02:04:54;;;;;;;9.90;2.90;;;;;;;19.17;60.29;100234.10;106806;1268;22687;-78
2022/06/27 02:07:26;;;;;;;8.80;3.10;;;;;;;19.14;60.32;100231.94;106853;1268;25300;-78
2022/06/27 02:09:57;;;;;;;9.60;3.50;;;;;;;19.10;60.50;100236.47;106845;1268;22672;-78
2022/06/27 02:12:29;;;;;;;11.60;3.70;;;;;;;19.07;60.73;100240.16;106886;1268;25413;-78
2022/06/27 02:15:01;;;;;;;12.40;3.80;;;;;;;19.03;60.71;100242.44;107454;1255;25362;-77
2022/06/27 02:17:32;;;;;;;12.20;3.30;;;;;;;19.00;60.74;100239.11;106853;1268;22654;-77
2022/06/27 02:20:06;;;;;;;10.90;3.70;;;;;;;18.99;60.51;100235.73;106712;1267;22730;-77
2022/06/27 02:22:37;;;;;;;11.00;4.30;;;;;;;18.97;60.69;100232.98;106843;1267;22530;-80
2022/06/27 02:25:10;;;;;;;10.70;3.40;;;;;;;18.94;60.85;100231.07;106780;1271;23340;-77
2022/06/27 02:27:43;;;;;;;10.70;4.50;;;;;;;18.92;60.65;100236.80;106748;1266;22525;-76
2022/06/27 02:30:15;;;;;;;11.30;5.00;;;;;;;18.90;60.88;100239.10;106719;1268;22492;-78
2022/06/27 02:32:47;;;;;;;13.50;5.70;;;;;;;18.87;60.96;100236.66;106922;1268;26625;-77
2022/06/27 02:35:20;;;;;;;12.60;4.50;;;;;;;18.83;61.02;100239.30;106693;1268;22574;-78
2022/06/27 02:37:53;;;;;;;9.80;3.50;;;;;;;18.79;61.13;100240.80;106759;1271;25244;-78
2022/06/27 02:40:25;;;;;;;8.90;3.30;;;;;;;18.74;61.45;100246.12;106734;1268;24196;-76
2022/06/27 02:42:58;;;;;;;11.60;3.80;;;;;;;18.68;61.59;100254.08;106677;1268;23479;-77
2022/06/27 02:45:30;;;;;;;11.90;3.70;;;;;;;18.63;61.57;100260.35;106679;1271;22471;-77
2022/06/27 02:48:03;;;;;;;12.80;3.90;;;;;;;18.61;61.33;100260.27;106718;1270;24367;-76
2022/06/27 02:50:39;;;;;;;11.20;3.80;;;;;;;18.61;61.52;100263.32;106659;1272;22584;-78
2022/06/27 02:53:17;;;;;;;10.80;2.90;;;;;;;18.59;61.73;100262.58;106678;1268;23427;-77
2022/06/27 02:55:54;;;;;;;11.40;3.40;;;;;;;18.57;61.86;100269.98;106678;1270;22544;-77
2022/06/27 02:58:34;;;;;;;12.20;3.60;;;;;;;18.51;62.12;100268.33;106686;1268;25890;-76
2022/06/27 03:01:06;;;;;;;11.40;3.80;;;;;;;18.46;62.07;100269.98;106899;1268;22513;-77
2022/06/27 03:03:41;;;;;;;11.30;3.50;;;;;;;18.43;62.16;100269.85;106691;1268;24211;-77
2022/06/27 03:06:17;;;;;;;12.20;3.70;;;;;;;18.40;62.28;100273.20;106768;1268;22538;-76
2022/06/27 03:08:50;;;;;;;9.60;3.40;;;;;;;18.39;62.12;100271.06;106715;1268;24394;-77
2022/06/27 03:11:23;;;;;;;12.60;5.80;;;;;;;18.38;62.33;100271.48;106735;1268;22557;-78
2022/06/27 03:13:56;;;;;;;12.40;5.30;;;;;;;18.37;62.38;100270.67;106667;1269;22627;-77
2022/06/27 03:16:28;;;;;;;14.00;6.60;;;;;;;18.35;62.52;100274.71;106893;1268;22563;-76
2022/06/27 03:19:00;;;;;;;14.10;4.90;;;;;;;18.31;62.73;100276.35;106716;1268;22567;-77
2022/06/27 03:21:31;;;;;;;13.30;5.40;;;;;;;18.29;62.88;100278.02;106763;1268;22532;-77
2022/06/27 03:24:02;;;;;;;14.40;6.10;;;;;;;18.26;63.03;100279.66;106717;1268;22570;-77
2022/06/27 03:26:34;;;;;;;14.40;6.70;;;;;;;18.23;63.07;100277.27;106756;1268;22543;-76
2022/06/27 03:29:05;;;;;;;15.20;6.30;;;;;;;18.23;63.03;100280.46;106724;1268;22530;-79
2022/06/27 03:31:37;;;;;;;13.50;5.30;;;;;;;18.23;63.14;100277.27;106727;1268;25421;-79
2022/06/27 03:34:08;;;;;;;13.20;5.60;;;;;;;18.25;63.43;100278.66;106651;1268;22547;-77
2022/06/27 03:36:41;;;;;;;11.70;5.40;;;;;;;18.25;63.31;100280.65;106747;1268;25292;-77
2022/06/27 03:39:13;;;;;;;15.90;5.70;;;;;;;18.24;63.55;100283.75;106765;1268;25350;-77
2022/06/27 03:41:45;;;;;;;14.80;5.50;;;;;;;18.24;63.63;100287.13;106748;1268;22849;-76
2022/06/27 03:44:18;;;;;;;17.60;5.70;;;;;;;18.25;63.89;100286.45;106729;1268;22476;-76
2022/06/27 03:46:49;;;;;;;14.30;5.40;;;;;;;18.27;63.95;100288.42;106706;1268;25360;-76
2022/06/27 03:52:10;;;;;;;11.90;4.70;;;;;;;18.33;64.16;100291.85;106769;1268;25072;-76
2022/06/27 03:54:42;;;;;;;11.00;4.00;;;;;;;18.36;64.31;100284.81;106647;1271;22793;-77
2022/06/27 03:57:13;;;;;;;14.10;5.40;;;;;;;18.40;64.49;100286.12;106610;1268;24227;-76
2022/06/27 03:59:45;;;;;;;13.80;4.60;;;;;;;18.45;64.58;100282.33;106668;1268;22764;-77
2022/06/27 04:02:16;;;;;;;14.90;5.00;;;;;;;18.50;64.57;100287.16;106622;1268;23927;-76
2022/06/27 04:04:47;;;;;;;13.50;4.10;;;;;;;18.57;64.37;100292.88;106726;1268;23958;-77
2022/06/27 04:07:19;;;;;;;8.40;2.90;;;;;;;18.63;64.68;100295.98;106730;1268;25725;-77
2022/06/27 04:09:52;;;;;;;12.10;3.80;;;;;;;18.70;64.58;100296.77;106761;1268;22550;-77
2022/06/27 04:12:23;;;;;;;10.40;4.00;;;;;;;18.77;64.60;100290.09;106754;1268;22820;-77
2022/06/27 04:14:54;;;;;;;17.00;4.50;;;;;;;18.85;64.41;100293.12;106843;1268;22584;-76
2022/06/27 04:17:26;;;;;;;9.00;3.50;;;;;;;18.92;64.47;100291.67;106720;1268;24022;-75
2022/06/27 04:19:58;;;;;;;12.60;4.90;;;;;;;19.00;64.48;100297.28;106719;1268;22550;-74
2022/06/27 04:22:30;;;;;;;11.60;4.20;;;;;;;19.08;64.45;100303.84;106712;1268;22529;-75
2022/06/27 04:25:02;;;;;;;12.20;3.80;;;;;;;19.18;64.47;100301.39;106731;1268;24673;-76
2022/06/27 04:27:33;;;;;;;12.20;3.40;;;;;;;19.27;64.43;100304.44;106931;1268;24175;-76
2022/06/27 04:30:06;;;;;;;11.30;3.80;;;;;;;19.37;64.59;100305.84;107058;1268;23510;-76
2022/06/27 04:32:37;;;;;;;9.30;3.50;;;;;;;19.49;64.42;100303.72;106866;1268;22536;-79
2022/06/27 04:35:10;;;;;;;18.80;4.40;;;;;;;19.59;64.50;100302.52;106823;1268;23497;-78
2022/06/27 04:37:43;;;;;;;11.60;3.40;;;;;;;19.70;64.51;100302.58;106854;1268;22698;-77
2022/06/27 04:40:17;;;;;;;12.40;4.50;;;;;;;19.82;64.43;100304.79;106729;1268;22645;-78
2022/06/27 04:42:49;;;;;;;15.50;3.70;;;;;;;19.96;64.32;100301.77;106734;1268;25580;-75
2022/06/27 04:45:21;;;;;;;8.20;3.00;;;;;;;20.12;64.09;100301.52;106656;1268;23993;-75
2022/06/27 04:47:52;;;;;;;9.30;3.80;;;;;;;20.26;64.16;100298.71;106619;1268;24258;-74
2022/06/27 04:50:25;;;;;;;12.20;3.60;;;;;;;20.36;64.13;100302.38;106710;1268;22576;-74
2022/06/27 04:53:00;;;;;;;9.10;3.00;;;;;;;20.46;64.02;100298.03;106801;1268;25296;-75
2022/06/27 04:55:32;;;;;;;12.20;3.50;;;;;;;20.58;63.89;100299.86;106701;1268;24189;-75
2022/06/27 04:58:05;;;;;;;13.90;3.30;;;;;;;20.69;63.75;100298.83;106832;1268;23312;-76
2022/06/27 05:00:36;;;;;;;7.60;2.90;;;;;;;20.85;63.57;100296.12;106845;1268;22528;-75
2022/06/27 05:03:08;;;;;;;11.30;3.50;;;;;;;21.01;63.33;100293.89;106840;1268;22549;-75
2022/06/27 05:05:40;;;;;;;11.10;2.80;;;;;;;21.15;63.21;100296.29;106810;1268;22642;-77
2022/06/27 05:08:12;;;;;;;9.00;2.70;;;;;;;21.28;63.17;100296.88;106837;1268;22573;-76
2022/06/27 05:10:43;;;;;;;13.70;3.60;;;;;;;21.41;62.95;100300.13;106865;1268;25346;-75
2022/06/27 05:13:15;;;;;;;13.40;3.30;;;;;;;21.55;62.82;100301.48;106746;1268;22545;-76
2022/06/27 05:15:46;;;;;;;11.50;3.10;;;;;;;21.68;62.67;100302.91;106686;1270;22629;-76
2022/06/27 05:18:18;;;;;;;11.50;3.10;;;;;;;21.82;62.80;100302.05;106664;1270;25585;-78
2022/06/27 05:20:49;;;;;;;11.50;2.90;;;;;;;21.97;62.35;100303.06;106594;1270;22548;-77
2022/06/27 05:23:21;;;;;;;10.30;2.80;;;;;;;22.12;61.99;100303.98;106653;1271;24223;-76
2022/06/27 05:25:52;;;;;;;12.00;2.90;;;;;;;22.21;62.00;100300.70;106557;1269;24254;-77
2022/06/27 05:28:24;;;;;;;9.90;2.70;;;;;;;22.34;61.81;100297.60;106597;1270;22771;-76
2022/06/27 05:30:55;;;;;;;9.40;3.30;;;;;;;22.48;61.59;100298.23;106696;1271;24313;-76
2022/06/27 05:33:26;;;;;;;8.20;2.40;;;;;;;22.63;61.19;100296.95;106688;1270;24279;-76
2022/06/27 05:35:58;;;;;;;7.90;2.50;;;;;;;22.76;60.64;100293.70;106614;1270;22900;-75
2022/06/27 05:38:29;;;;;;;9.40;3.60;;;;;;;22.88;60.31;100297.41;106655;1268;24227;-75
2022/06/27 05:41:02;;;;;;;8.40;2.60;;;;;;;22.98;60.04;100299.83;106679;1270;24033;-75
2022/06/27 05:43:33;;;;;;;8.80;2.70;;;;;;;23.09;59.86;100301.98;106671;1270;22528;-76
2022/06/27 05:46:06;;;;;;;8.70;2.70;;;;;;;23.20;59.66;100299.42;106634;1270;25283;-76
2022/06/27 05:48:38;;;;;;;8.60;2.70;;;;;;;23.32;59.57;100302.09;106531;1271;26663;-76
2022/06/27 05:51:10;;;;;;;11.70;3.30;;;;;;;23.48;59.53;100301.19;106519;1270;22540;-76
2022/06/27 05:53:41;;;;;;;10.10;2.80;;;;;;;23.60;58.90;100302.84;106685;1270;22622;-76
2022/06/27 05:56:13;;;;;;;9.00;2.60;;;;;;;23.66;58.68;100299.65;106662;1270;23346;-76
2022/06/27 05:58:46;;;;;;;13.80;3.10;;;;;;;23.76;58.52;100300.75;106567;1270;23413;-76
2022/06/27 06:01:19;;;;;;;12.00;2.80;;;;;;;23.88;58.35;100303.67;106473;1271;22551;-76
2022/06/27 06:03:50;;;;;;;10.50;3.00;;;;;;;24.00;57.90;100303.07;106627;1270;25388;-75
2022/06/27 06:06:24;;;;;;;8.80;2.30;;;;;;;24.12;57.67;100309.17;106626;1270;25197;-75
2022/06/27 06:08:57;;;;;;;13.60;2.80;;;;;;;24.22;57.67;100304.25;106785;1270;23994;-75
2022/06/27 06:11:28;;;;;;;10.50;2.50;;;;;;;24.36;57.51;100305.70;106763;1270;22650;-75
2022/06/27 06:14:00;;;;;;;10.50;2.70;;;;;;;24.51;57.01;100301.52;106956;1270;22553;-76
2022/06/27 06:16:32;;;;;;;9.60;3.00;;;;;;;24.66;56.73;100299.61;106568;1270;23221;-76
2022/06/27 06:19:03;;;;;;;10.30;2.70;;;;;;;24.78;56.41;100301.50;106630;1270;22545;-75
2022/06/27 06:21:35;;;;;;;10.50;2.40;;;;;;;24.87;55.96;100291.90;106700;1270;25387;-77
2022/06/27 06:24:08;;;;;;;9.20;2.60;;;;;;;24.98;56.17;100289.10;106405;1271;22550;-80
2022/06/27 06:26:39;;;;;;;9.30;2.90;;;;;;;25.13;55.69;100286.44;106607;1271;23514;-77
2022/06/27 06:29:14;;;;;;;9.50;2.80;;;;;;;25.25;55.10;100289.77;106536;1270;23056;-76
2022/06/27 06:31:46;;;;;;;8.90;2.40;;;;;;;25.31;54.93;100293.45;106557;1270;22525;-77
2022/06/27 06:34:18;;;;;;;8.30;2.10;;;;;;;25.41;54.99;100291.38;106544;1270;25228;-77
2022/06/27 06:36:49;;;;;;;10.70;2.20;;;;;;;25.55;54.66;100291.08;106528;1270;22569;-77
2022/06/27 06:39:21;;;;;;;8.50;2.60;;;;;;;25.68;54.10;100289.33;106557;1270;22701;-74
2022/06/27 06:41:52;;;;;;;10.00;2.80;;;;;;;25.77;53.78;100285.52;106626;1270;22609;-76
2022/06/27 06:44:24;;;;;;;10.10;2.50;;;;;;;25.87;53.44;100285.09;106672;1270;23065;-77
2022/06/27 06:46:56;;;;;;;9.60;2.80;;;;;;;25.96;53.22;100289.89;106803;1270;23532;-76
2022/06/27 06:49:29;;;;;;;10.30;2.60;;;;;;;26.06;52.98;100293.31;106710;1271;25354;-77
2022/06/27 06:52:01;;;;;;;9.30;2.40;;;;;;;26.17;52.71;100296.10;106649;1270;25140;-77
2022/06/27 06:54:32;;;;;;;14.70;2.80;;;;;;;26.27;52.31;100293.59;106638;1270;25542;-76
2022/06/27 06:57:04;;;;;;;8.80;1.90;;;;;;;26.36;51.83;100300.06;106690;1270;22556;-77
2022/06/27 06:59:36;;;;;;;6.90;2.10;;;;;;;26.44;52.06;100296.69;106618;1270;22691;-79
2022/06/27 07:02:08;;;;;;;9.90;2.50;;;;;;;26.55;51.72;100297.27;106729;1270;25967;-78
2022/06/27 07:04:40;;;;;;;10.20;2.70;;;;;;;26.64;51.41;100293.36;106633;1270;22536;-78
2022/06/27 07:07:14;;;;;;;11.10;2.60;;;;;;;26.73;51.09;100289.11;106710;1270;22886;-78
2022/06/27 07:09:45;;;;;;;10.10;2.30;;;;;;;26.85;50.86;100291.23;106563;1270;22697;-77
2022/06/27 07:12:17;;;;;;;11.30;2.40;;;;;;;26.92;50.53;100290.80;106579;1270;22547;-78
2022/06/27 07:14:48;;;;;;;7.50;1.90;;;;;;;26.97;50.34;100283.20;106556;1268;22739;-79
2022/06/27 07:17:21;;;;;;;10.40;2.00;;;;;;;27.05;50.32;100286.05;106644;1268;26893;-77
2022/06/27 07:19:53;;;;;;;5.90;1.80;;;;;;;27.14;49.75;100280.84;106699;1268;22573;-77
2022/06/27 07:22:26;;;;;;;6.90;1.70;;;;;;;27.21;49.43;100278.73;106876;1268;23937;-77
2022/06/27 07:24:57;;;;;;;13.00;2.40;;;;;;;27.29;49.05;100277.91;107045;1268;24349;-77
2022/06/27 07:27:29;;;;;;;7.10;2.20;;;;;;;27.36;49.08;100277.75;106710;1268;22682;-77
2022/06/27 07:30:01;;;;;;;9.10;2.00;;;;;;;27.44;48.90;100280.88;106676;1268;22698;-79
2022/06/27 07:32:33;;;;;;;9.60;2.30;;;;;;;27.54;48.19;100277.44;106629;1268;22541;-79
2022/06/27 07:35:07;;;;;;;7.40;1.90;;;;;;;27.60;48.34;100272.52;106620;1268;22873;-77
2022/06/27 07:37:44;;;;;;;7.60;1.60;;;;;;;27.66;48.00;100276.52;106571;1268;22577;-78
2022/06/27 07:40:17;;;;;;;6.60;2.10;;;;;;;27.76;47.87;100277.35;106738;1268;22689;-78
2022/06/27 07:42:50;;;;;;;6.80;1.80;;;;;;;27.90;47.47;100281.58;106638;1268;25467;-76
2022/06/27 07:45:26;;;;;;;7.40;2.20;;;;;;;28.00;47.41;100279.52;106482;1268;22638;-75
2022/06/27 07:47:58;;;;;;;10.30;2.00;;;;;;;28.09;47.12;100274.58;107095;1268;22535;-76
2022/06/27 07:50:40;;;;;;;9.00;1.90;;;;;;;28.16;46.75;100275.15;106512;1268;25238;-75
2022/06/27 07:53:17;;;;;;;8.50;2.10;;;;;;;28.22;46.41;100274.58;106604;1268;23126;-77
2022/06/27 07:55:51;;;;;;;5.60;1.60;;;;;;;28.28;46.26;100279.24;106596;1268;22544;-77
2022/06/27 07:58:30;;;;;;;8.20;2.10;;;;;;;28.32;45.82;100272.84;106678;1268;23753;-79
2022/06/27 08:01:03;;;;;;;6.10;2.30;;;;;;;28.38;45.72;100266.38;106577;1268;22656;-77
2022/06/27 08:03:44;;;;;;;8.60;2.10;;;;;;;28.41;45.28;100259.98;106578;1268;25318;-76
2022/06/27 08:06:32;;;;;;;5.60;1.90;;;;;;;28.48;45.12;100259.34;103650;1307;545555;-78
2022/06/27 08:09:07;;;;;;;6.50;1.90;;;;;;;28.49;44.77;100263.90;106637;1274;22541;-77
2022/06/27 08:11:42;;;;;;;6.50;1.70;;;;;;;28.55;44.60;100265.39;106504;1274;23377;-77
2022/06/27 08:14:17;;;;;;;5.30;1.70;;;;;;;28.62;44.36;100264.14;106865;1274;23058;-76
2022/06/27 08:16:52;;;;;;;9.20;1.90;;;;;;;28.69;44.36;100267.14;106696;1267;88872;-62
2022/06/27 08:19:24;;;;;;;8.20;1.70;;;;;;;28.79;44.15;100270.63;101617;1274;5379622;-62
2022/06/27 08:21:58;;;;;;;8.00;1.80;;;;;;;28.95;43.99;100273.95;105954;1274;24243;-63
2022/06/27 08:24:31;;;;;;;5.30;1.50;;;;;;;29.04;43.26;100276.18;105938;1274;25385;-64
2022/06/27 08:27:05;;;;;;;6.90;1.80;;;;;;;29.10;43.24;100279.77;105597;1277;23212;-63
2022/06/27 08:29:38;;;;;;;6.50;1.60;;;;;;;29.15;43.03;100276.27;105712;1277;22715;-64
2022/06/27 08:32:11;;;;;;;7.30;1.70;;;;;;;29.20;42.50;100273.66;105670;1277;22569;-63
2022/06/27 08:34:47;;;;;;;7.20;1.70;;;;;;;29.26;42.04;100273.40;105571;1277;22555;-63
2022/06/27 08:37:23;;;;;;;6.10;1.80;;;;;;;29.31;42.16;100276.04;105699;1277;22633;-64
2022/06/27 08:39:54;;;;;;;8.90;1.70;;;;;;;29.36;42.12;100271.36;105553;1277;24345;-63
2022/06/27 08:42:26;;;;;;;9.50;2.10;;;;;;;29.46;42.12;100269.45;105596;1278;25755;-63
2022/06/27 08:45:01;;;;;;;5.90;1.60;;;;;;;29.61;41.79;100265.33;105514;1276;22585;-63
2022/06/27 08:47:33;;;;;;;5.90;1.30;;;;;;;29.76;41.18;100269.96;105506;1277;22633;-63
2022/06/27 08:50:07;;;;;;;7.00;1.40;;;;;;;29.87;40.37;100268.04;105564;1277;24285;-63
2022/06/27 08:52:40;;;;;;;5.10;1.40;;;;;;;29.95;40.34;100269.48;105581;1277;22580;-65
2022/06/27 08:55:13;;;;;;;4.40;1.30;;;;;;;30.05;40.38;100261.70;105829;1271;24256;-63
2022/06/27 08:57:46;;;;;;;4.10;1.30;;;;;;;30.11;39.75;100265.41;105821;1271;22573;-63
2022/06/27 09:00:22;;;;;;;5.30;1.20;;;;;;;30.15;39.29;100265.98;105736;1271;24354;-63
2022/06/27 09:02:54;;;;;;;4.40;1.20;;;;;;;30.20;38.99;100267.73;105863;1271;22580;-63
2022/06/27 09:05:28;;;;;;;5.80;1.10;;;;;;;30.28;38.25;100267.58;105716;1271;25312;-63
2022/06/27 09:08:02;;;;;;;4.30;1.20;;;;;;;30.39;38.28;100264.75;105763;1271;24285;-64
2022/06/27 09:10:39;;;;;;;3.10;1.00;;;;;;;30.48;38.04;100265.48;106107;1271;23213;-64
2022/06/27 09:13:14;;;;;;;6.40;1.10;;;;;;;30.60;37.37;100266.98;105889;1270;25312;-63
2022/06/27 09:15:53;;;;;;;3.90;1.20;;;;;;;30.70;36.70;100264.65;105974;1270;25426;-62
2022/06/27 09:18:27;;;;;;;4.70;1.00;;;;;;;30.74;36.40;100268.39;105752;1271;22563;-64
2022/06/27 09:21:01;;;;;;;3.40;1.20;;;;;;;30.83;36.50;100268.38;105759;1271;24392;-64
2022/06/27 09:23:43;;;;;;;5.80;1.40;;;;;;;30.91;36.22;100268.83;105714;1271;22612;-64
2022/06/27 09:26:18;;;;;;;8.50;1.50;;;;;;;30.99;36.31;100265.73;105736;1271;22539;-64
2022/06/27 09:28:53;;;;;;;7.20;1.20;;;;;;;31.05;35.90;100262.52;105701;1271;22662;-64
2022/06/27 09:31:42;;;;;;;4.50;1.40;;;;;;;31.07;35.91;100263.38;105792;1271;22534;-64
2022/06/27 09:34:16;;;;;;;4.50;1.30;;;;;;;31.12;35.95;100258.08;105776;1271;25763;-63
2022/06/27 09:36:51;;;;;;;6.90;1.40;;;;;;;31.22;35.96;100255.36;105905;1271;22558;-64
2022/06/27 09:39:28;;;;;;;4.70;1.60;;;;;;;31.26;35.50;100246.83;105875;1271;22584;-63
2022/06/27 09:42:01;;;;;;;6.60;1.40;;;;;;;31.29;35.80;100244.29;105918;1271;25257;-63
2022/06/27 09:44:35;;;;;;;6.50;1.60;;;;;;;31.32;35.73;100237.70;105787;1271;22533;-64
2022/06/27 09:47:16;;;;;;;7.40;1.60;;;;;;;31.36;36.04;100234.45;106000;1270;22594;-64
2022/06/27 09:49:50;;;;;;;5.70;1.30;;;;;;;31.44;36.41;100241.04;106118;1270;25261;-64
2022/06/27 09:52:24;;;;;;;8.80;1.60;;;;;;;31.50;36.25;100235.39;105974;1270;25368;-66
2022/06/27 09:55:05;;;;;;;4.70;1.70;;;;;;;31.50;36.14;100228.02;105973;1270;24256;-64
2022/06/27 09:57:44;;;;;;;6.10;1.40;;;;;;;31.50;36.29;100224.89;106137;1269;24238;-64
2022/06/27 10:00:19;;;;;;;7.80;1.50;;;;;;;31.55;36.20;100224.00;105978;1270;25422;-64
2022/06/27 10:02:52;;;;;;;6.20;1.70;;;;;;;31.54;36.15;100214.75;105745;1270;25351;-64
2022/06/27 10:05:24;;;;;;;7.20;1.70;;;;;;;31.55;36.06;100214.19;106019;1271;25734;-64
2022/06/27 10:07:59;;;;;;;8.50;1.80;;;;;;;31.58;36.16;100210.93;106148;1270;24912;-64
2022/06/27 10:10:32;;;;;;;8.60;1.80;;;;;;;31.64;36.03;100208.69;106196;1270;24412;-64
2022/06/27 10:13:12;;;;;;;10.80;1.90;;;;;;;31.69;35.96;100202.79;105883;1270;22685;-64
2022/06/27 10:15:46;;;;;;;4.80;1.70;;;;;;;31.80;36.27;100201.87;106027;1270;25409;-64
2022/06/27 10:18:18;;;;;;;7.10;1.90;;;;;;;31.86;35.86;100194.48;106105;1271;25359;-64
2022/06/27 10:20:53;;;;;;;6.60;1.50;;;;;;;31.85;35.75;100197.74;106026;1270;24368;-69
2022/06/27 10:23:37;;;;;;;6.20;1.40;;;;;;;31.89;34.74;100200.25;106018;1270;22559;-65
2022/06/27 10:26:30;;;;;;;4.50;1.20;;;;;;;32.01;33.97;100194.36;105988;1270;22559;-64
2022/06/27 10:29:29;;;;;;;9.50;2.00;;;;;;;32.16;33.39;100190.80;106010;1270;22530;-64
2022/06/27 10:32:02;;;;;;;4.90;1.20;;;;;;;32.28;33.60;100191.49;105957;1270;22475;-64
2022/06/27 10:35:15;;;;;;;3.90;1.20;;;;;;;32.33;33.20;100186.45;106261;1271;22531;-64
2022/06/27 10:37:48;;;;;;;7.60;1.40;;;;;;;32.39;33.16;100180.63;105873;1274;22649;-64
2022/06/27 10:40:53;;;;;;;3.50;1.20;;;;;;;32.47;32.62;100177.31;105793;1273;26526;-64
2022/06/27 10:43:46;;;;;;;4.20;1.40;;;;;;;32.60;31.90;100174.44;105485;1273;23220;-64
2022/06/27 10:46:45;;;;;;;4.80;1.30;;;;;;;32.66;31.69;100171.46;105575;1273;22529;-64
2022/06/27 10:49:27;;;;;;;4.30;1.40;;;;;;;32.77;31.91;100166.60;105745;1273;22916;-65
2022/06/27 10:52:27;;;;;;;4.70;1.30;;;;;;;32.83;31.63;100164.63;105726;1273;22672;-64
2022/06/27 10:54:58;;;;;;;7.30;1.40;;;;;;;32.89;31.43;100162.32;105738;1273;22545;-64
2022/06/27 10:57:44;;;;;;;6.00;1.80;;;;;;;32.92;31.67;100159.59;105837;1273;25937;-64
2022/06/27 11:00:40;;;;;;;7.20;1.70;;;;;;;32.97;31.69;100163.10;105993;1273;24122;-65
2022/06/27 11:03:20;;;;;;;6.10;1.60;;;;;;;33.05;31.47;100158.05;106109;1274;22525;-64
2022/06/27 11:06:01;;;;;;;5.30;1.30;;;;;;;33.10;31.39;100157.45;105863;1274;24250;-64
2022/06/27 11:08:35;;;;;;;5.60;1.70;;;;;;;33.12;31.03;100159.56;105925;1270;24245;-64
2022/06/27 11:11:07;;;;;;;4.10;1.40;;;;;;;33.11;30.93;100158.80;106203;1270;22551;-64
2022/06/27 11:13:44;;;;;;;8.80;1.70;;;;;;;33.12;31.16;100153.80;105990;1271;22543;-65
2022/06/27 11:16:19;;;;;;;5.00;1.40;;;;;;;33.12;31.15;100151.23;106238;1269;22713;-65
2022/06/27 11:18:53;;;;;;;7.00;1.30;;;;;;;33.15;31.23;100151.10;106194;1268;22556;-65
2022/06/27 11:21:26;;;;;;;4.90;1.60;;;;;;;33.12;31.09;100148.33;106096;1271;25259;-65
2022/06/27 11:24:00;;;;;;;6.70;1.60;;;;;;;33.13;31.47;100149.39;106175;1271;22556;-64
2022/06/27 11:26:33;;;;;;;6.60;1.60;;;;;;;33.16;31.53;100145.05;106055;1269;22573;-65
2022/06/27 11:32:07;;;;;;;6.80;1.70;;;;;;;33.31;31.79;100142.52;106055;1271;25369;-65
2022/06/27 11:34:41;;;;;;;9.60;1.80;;;;;;;33.34;31.61;100137.92;106161;1270;23697;-64
2022/06/27 11:37:15;;;;;;;7.00;1.60;;;;;;;33.34;31.66;100137.20;106272;1269;22541;-65
2022/06/27 11:39:59;;;;;;;8.50;2.00;;;;;;;33.36;31.69;100133.30;106221;1270;22571;-65
2022/06/27 11:42:36;;;;;;;5.50;1.50;;;;;;;33.38;31.75;100130.79;106316;1269;22633;-65
2022/06/27 11:45:10;;;;;;;8.00;1.70;;;;;;;33.40;31.80;100128.41;106213;1271;22525;-64
2022/06/27 11:47:44;;;;;;;4.20;1.50;;;;;;;33.42;31.73;100124.33;106038;1270;25249;-65
2022/06/27 11:50:17;;;;;;;3.60;1.40;;;;;;;33.43;31.89;100124.07;106250;1271;23577;-66